Sudbury Airport
CYSB : now visible

Airfield :











YOU CAN JOIN US ON...

 
LOGIN :

Register | Disclaimer

   EN    FR    IT 

 









Legend :    VFR   Marginal VFR   IFR   Intensive IFR   Very Intensive IFR
Visi :
Ceiling :
>= 8 km
>= 3000ft
5 to 8 km
1000 to 3000 ft
1500m to 5 km
500 to 1000 ft
800 to 1500m
200 to 500 ft
< 800m
< 200 ft
Symbols :   Thunderstorms  Fog  Heavy snow  Heavy precipitations  Wind > 20 kt






- Airport Elevation : 1141 ft
- IATA code : YSB


CYSB - Sudbury

CURRENT METAR :
  • 221200Z 25004KT 20SM FEW210 01/00 A3023 RMK CI2 SLP252

EXPIRED METARs :
  • 221100Z 23004KT 15SM FEW160 01/01 A3021 RMK AC2 SLP247
  • 221000Z 27004KT 15SM FEW160 02/01 A3021 RMK AC2 SLP245

TAF TAF CYSB
Valid from the 22 at 08:00 until the 22 at 20:00 UTC


220738Z 2208/2220 VRB03KT P6SM SCT015 OVC180
TEMPO 2208/2210 BKN015 OVC180
FM221000 VRB03KT P6SM FEW003
PROB30 2210/2214 1SM BR BKN003
FM221700 VRB03KT P6SM SCT030 BKN080 RMK NXT FCST BY 221400Z
CZYZ FIR / North America



MET'MAP, your aeronautical weather chart ! - Copyright ORBIFLY December 2007 - Disclaimer

ORBIFLY MET'MAP TEAM :

Programming & Development : Alexandra Zaïnal
Concept & original design : Baudouin d'Aumeries
Assistance for programming : Marc-Olivier Méhu
Technical & hardware support : Manuel Goepfert

Contact : metmap@orbifly.com




SOURCES & CREDITS :

   NOAA       Earth
Advisory